Time;durP1;ratioP1;P1;durP2;ratioP2;P2;SDS_P1;SDS_P2;PMS_P1;PMS_P2;Temp;Humidity;BMP_temperature;BMP_pressure;BME280_temperature;BME280_humidity;BME280_pressure;Samples;Min_cycle;Max_cycle;Signal;HPM_P1;HPM_P2
2023/07/26 00:01:08;;;;;;;1.07;0.60;;;;;;;;;;5046602;28;20320;-67
2023/07/26 00:03:38;;;;;;;0.97;0.80;;;;;;;;;;5037671;28;20585;-67
2023/07/26 00:06:10;;;;;;;1.37;0.60;;;;;;;;;;5037616;28;20285;-67
2023/07/26 00:08:37;;;;;;;0.70;0.60;;;;;;;;;;5037464;28;20314;-67
2023/07/26 00:11:05;;;;;;;1.53;0.60;;;;;;;;;;5037414;28;20682;-67
2023/07/26 00:13:33;;;;;;;2.13;0.80;;;;;;;;;;5037353;28;20234;-67
2023/07/26 00:16:01;;;;;;;1.00;0.90;;;;;;;;;;5037336;28;20208;-67
2023/07/26 00:18:28;;;;;;;1.13;0.70;;;;;;;;;;5044239;28;20212;-63
2023/07/26 00:20:56;;;;;;;0.80;0.80;;;;;;;;;;5057340;28;20771;-63
2023/07/26 00:23:26;;;;;;;1.17;0.87;;;;;;;;;;5057452;28;20221;-63
2023/07/26 00:25:53;;;;;;;1.10;0.70;;;;;;;;;;5057158;28;20573;-63
2023/07/26 00:28:21;;;;;;;0.57;0.50;;;;;;;;;;5057065;28;20664;-63
2023/07/26 00:30:49;;;;;;;2.73;0.60;;;;;;;;;;5057310;28;20237;-63
2023/07/26 00:33:17;;;;;;;0.70;0.70;;;;;;;;;;5057076;28;20641;-63
2023/07/26 00:35:45;;;;;;;0.53;0.53;;;;;;;;;;5057188;28;20294;-63
2023/07/26 00:38:12;;;;;;;1.23;0.60;;;;;;;;;;5056996;28;20240;-63
2023/07/26 00:40:42;;;;;;;0.70;0.70;;;;;;;;;;5054388;28;20296;-63
2023/07/26 00:43:09;;;;;;;0.50;0.50;;;;;;;;;;5036983;28;20230;-63
2023/07/26 00:45:38;;;;;;;1.83;0.60;;;;;;;;;;5037018;28;20211;-63
2023/07/26 00:48:06;;;;;;;2.00;0.60;;;;;;;;;;5037276;28;20216;-63
2023/07/26 00:50:34;;;;;;;1.70;0.70;;;;;;;;;;5053042;28;20224;-63
2023/07/26 00:53:03;;;;;;;0.83;0.70;;;;;;;;;;5055775;28;20239;-63
2023/07/26 00:55:33;;;;;;;0.90;0.80;;;;;;;;;;5056888;28;20247;-63
2023/07/26 00:58:04;;;;;;;0.50;0.50;;;;;;;;;;5056665;28;20699;-63
2023/07/26 01:00:32;;;;;;;1.33;0.60;;;;;;;;;;5047747;28;20229;-63
2023/07/26 01:02:59;;;;;;;0.87;0.87;;;;;;;;;;5038861;28;20212;-63
2023/07/26 01:05:31;;;;;;;2.63;0.97;;;;;;;;;;5040586;28;20564;-63
2023/07/26 01:08:03;;;;;;;1.67;0.60;;;;;;;;;;5040543;28;20216;-63
2023/07/26 01:10:35;;;;;;;0.50;0.50;;;;;;;;;;5040478;28;20242;-63
2023/07/26 01:13:08;;;;;;;1.27;0.73;;;;;;;;;;5040422;28;20209;-63
2023/07/26 01:15:38;;;;;;;1.50;0.70;;;;;;;;;;5040605;28;20207;-63
2023/07/26 01:18:10;;;;;;;0.80;0.80;;;;;;;;;;5040615;28;20210;-63
2023/07/26 01:20:38;;;;;;;0.60;0.60;;;;;;;;;;5040003;28;20242;-63
2023/07/26 01:23:07;;;;;;;0.60;0.50;;;;;;;;;;5040131;28;20671;-63
2023/07/26 01:25:35;;;;;;;1.33;0.50;;;;;;;;;;5040102;28;20575;-63
2023/07/26 01:28:03;;;;;;;0.73;0.73;;;;;;;;;;5040170;28;20208;-63
2023/07/26 01:30:32;;;;;;;1.50;0.50;;;;;;;;;;5042002;28;20243;-63
2023/07/26 01:33:03;;;;;;;1.93;1.03;;;;;;;;;;5059922;28;20261;-63
2023/07/26 01:35:31;;;;;;;1.70;0.77;;;;;;;;;;5060119;28;20213;-63
2023/07/26 01:38:00;;;;;;;1.33;0.77;;;;;;;;;;5059730;28;20580;-63
2023/07/26 01:40:29;;;;;;;0.60;0.60;;;;;;;;;;5056514;28;20219;-63
2023/07/26 01:42:57;;;;;;;2.33;0.70;;;;;;;;;;5039700;28;20211;-63
2023/07/26 01:45:25;;;;;;;2.37;0.77;;;;;;;;;;5039970;28;20242;-63
2023/07/26 01:47:53;;;;;;;0.80;0.80;;;;;;;;;;5039973;28;20537;-63
2023/07/26 01:50:21;;;;;;;2.10;0.83;;;;;;;;;;5052751;28;20289;-63
2023/07/26 01:52:49;;;;;;;0.50;0.50;;;;;;;;;;5039416;28;20207;-63
2023/07/26 01:55:16;;;;;;;1.00;0.60;;;;;;;;;;5039761;28;20218;-63
2023/07/26 01:57:45;;;;;;;0.50;0.50;;;;;;;;;;5039536;28;20294;-63
2023/07/26 02:00:13;;;;;;;0.90;0.90;;;;;;;;;;5048567;28;20250;-63
2023/07/26 02:02:41;;;;;;;1.40;0.73;;;;;;;;;;5039810;28;20207;-63
2023/07/26 02:05:09;;;;;;;0.60;0.60;;;;;;;;;;5039700;28;20741;-63
2023/07/26 02:07:38;;;;;;;1.17;0.70;;;;;;;;;;5039223;28;20215;-63
2023/07/26 02:10:06;;;;;;;0.70;0.70;;;;;;;;;;5039371;28;20239;-63
2023/07/26 02:12:34;;;;;;;0.67;0.60;;;;;;;;;;5039298;28;20239;-63
2023/07/26 02:15:03;;;;;;;1.00;0.90;;;;;;;;;;5038469;28;20204;-63
2023/07/26 02:17:30;;;;;;;0.90;0.60;;;;;;;;;;5039393;28;20660;-63
2023/07/26 02:19:58;;;;;;;1.13;0.60;;;;;;;;;;5045702;28;20226;-63
2023/07/26 02:22:26;;;;;;;0.60;0.60;;;;;;;;;;5058830;28;20210;-63
2023/07/26 02:24:54;;;;;;;2.57;0.60;;;;;;;;;;5059008;28;20651;-63
2023/07/26 02:27:22;;;;;;;1.00;0.70;;;;;;;;;;5058584;28;20214;-62
2023/07/26 02:29:49;;;;;;;1.77;0.57;;;;;;;;;;5058889;28;20317;-63
2023/07/26 02:32:18;;;;;;;2.80;0.80;;;;;;;;;;5058867;28;20271;-63
2023/07/26 02:34:46;;;;;;;0.70;0.70;;;;;;;;;;5058646;28;20702;-63
2023/07/26 02:37:14;;;;;;;1.70;0.70;;;;;;;;;;5058924;28;20567;-63
2023/07/26 02:39:42;;;;;;;1.73;1.07;;;;;;;;;;5058497;28;20214;-63
2023/07/26 02:42:09;;;;;;;0.70;0.70;;;;;;;;;;5042639;28;20214;-63
2023/07/26 02:44:37;;;;;;;0.90;0.80;;;;;;;;;;5038828;28;20211;-63
2023/07/26 02:47:05;;;;;;;0.87;0.70;;;;;;;;;;5038532;28;20226;-63
2023/07/26 02:49:34;;;;;;;0.70;0.70;;;;;;;;;;5047487;28;20230;-63
2023/07/26 02:52:02;;;;;;;0.70;0.70;;;;;;;;;;5047341;28;20218;-63
2023/07/26 02:54:30;;;;;;;1.03;0.90;;;;;;;;;;5056444;28;20749;-63
2023/07/26 02:56:57;;;;;;;0.60;0.60;;;;;;;;;;5051689;28;20734;-63
2023/07/26 02:59:25;;;;;;;1.27;0.80;;;;;;;;;;5044328;28;20290;-62
2023/07/26 03:01:53;;;;;;;0.70;0.70;;;;;;;;;;5038294;28;20243;-63
2023/07/26 03:04:21;;;;;;;1.17;0.63;;;;;;;;;;5038507;28;20211;-63
2023/07/26 03:06:51;;;;;;;1.60;1.00;;;;;;;;;;5038118;28;20541;-63
2023/07/26 03:09:18;;;;;;;1.30;0.63;;;;;;;;;;5038386;28;20211;-63
2023/07/26 03:11:46;;;;;;;3.00;0.90;;;;;;;;;;5038246;28;20667;-63
2023/07/26 03:14:14;;;;;;;1.60;0.87;;;;;;;;;;5037988;28;20207;-62
2023/07/26 03:16:42;;;;;;;1.00;1.00;;;;;;;;;;5038300;28;20212;-63
2023/07/26 03:19:11;;;;;;;3.00;0.93;;;;;;;;;;5038413;28;20207;-63
2023/07/26 03:21:39;;;;;;;1.23;0.90;;;;;;;;;;5038082;28;20243;-63
2023/07/26 03:24:08;;;;;;;1.80;0.70;;;;;;;;;;5038145;28;20211;-63
2023/07/26 03:26:36;;;;;;;1.83;0.90;;;;;;;;;;5037919;28;20218;-63
2023/07/26 03:29:03;;;;;;;0.77;0.73;;;;;;;;;;5037603;28;20303;-63
2023/07/26 03:31:31;;;;;;;1.13;1.00;;;;;;;;;;5048650;28;20238;-63
2023/07/26 03:33:59;;;;;;;0.60;0.60;;;;;;;;;;5057575;28;20329;-63
2023/07/26 03:36:27;;;;;;;1.13;0.83;;;;;;;;;;5057859;28;20290;-63
2023/07/26 03:38:54;;;;;;;2.40;1.00;;;;;;;;;;5057889;28;20266;-63
2023/07/26 03:41:24;;;;;;;1.67;0.70;;;;;;;;;;5045415;28;20651;-63
2023/07/26 03:43:51;;;;;;;0.60;0.60;;;;;;;;;;5037348;28;20211;-63
2023/07/26 03:46:19;;;;;;;1.20;0.80;;;;;;;;;;5037693;28;20300;-62
2023/07/26 03:48:47;;;;;;;0.60;0.60;;;;;;;;;;5040147;28;20211;-63
2023/07/26 03:51:15;;;;;;;0.63;0.63;;;;;;;;;;5048049;28;20293;-63
2023/07/26 03:53:42;;;;;;;1.07;0.97;;;;;;;;;;5037588;28;20257;-63
2023/07/26 03:56:10;;;;;;;0.80;0.80;;;;;;;;;;5037829;28;20291;-63
2023/07/26 03:58:39;;;;;;;0.63;0.63;;;;;;;;;;5037505;28;20312;-63
2023/07/26 04:01:07;;;;;;;0.60;0.60;;;;;;;;;;5037808;28;20219;-62
2023/07/26 04:03:35;;;;;;;0.50;0.50;;;;;;;;;;5037788;28;20212;-62
2023/07/26 04:06:03;;;;;;;0.60;0.60;;;;;;;;;;5043057;28;20389;-63
2023/07/26 04:08:31;;;;;;;1.30;0.83;;;;;;;;;;5041248;28;20692;-62
2023/07/26 04:11:02;;;;;;;1.40;1.00;;;;;;;;;;5060959;28;20229;-63
2023/07/26 04:13:32;;;;;;;1.57;0.90;;;;;;;;;;5067281;28;20237;-63
2023/07/26 04:16:01;;;;;;;1.90;0.80;;;;;;;;;;5057921;28;20663;-63
2023/07/26 04:18:29;;;;;;;2.17;1.00;;;;;;;;;;5050568;28;20211;-63
2023/07/26 04:20:57;;;;;;;1.10;0.63;;;;;;;;;;5060753;28;20218;-63
2023/07/26 04:23:24;;;;;;;1.30;0.80;;;;;;;;;;5065699;28;20249;-63
2023/07/26 04:25:52;;;;;;;1.50;0.87;;;;;;;;;;5061891;28;20306;-62
2023/07/26 04:28:20;;;;;;;2.30;0.93;;;;;;;;;;5066258;28;20757;-63
2023/07/26 04:30:48;;;;;;;5.27;0.80;;;;;;;;;;5064735;28;20214;-62
2023/07/26 04:33:19;;;;;;;0.80;0.80;;;;;;;;;;5066198;28;20477;-63
2023/07/26 04:35:48;;;;;;;0.97;0.60;;;;;;;;;;5060857;28;20227;-62
2023/07/26 04:38:15;;;;;;;0.70;0.70;;;;;;;;;;5066000;28;20213;-63
2023/07/26 04:40:46;;;;;;;1.13;1.00;;;;;;;;;;5067117;28;20223;-62
2023/07/26 04:43:16;;;;;;;0.93;0.70;;;;;;;;;;5050344;28;20600;-61
2023/07/26 04:45:46;;;;;;;1.17;0.90;;;;;;;;;;5040962;28;20211;-61
2023/07/26 04:48:16;;;;;;;0.93;0.70;;;;;;;;;;5040964;28;20208;-62
2023/07/26 04:50:47;;;;;;;0.60;0.60;;;;;;;;;;5053731;28;20273;-61
2023/07/26 04:53:15;;;;;;;1.33;0.80;;;;;;;;;;5040655;28;20802;-61
2023/07/26 04:55:44;;;;;;;1.33;0.53;;;;;;;;;;5059369;28;20557;-61
2023/07/26 04:58:12;;;;;;;3.33;1.10;;;;;;;;;;5060284;28;20211;-61
2023/07/26 05:00:40;;;;;;;1.77;1.00;;;;;;;;;;5053253;28;20227;-61
2023/07/26 05:03:08;;;;;;;1.30;0.80;;;;;;;;;;5040700;28;20227;-61
2023/07/26 05:05:36;;;;;;;0.93;0.80;;;;;;;;;;5040812;28;20290;-60
2023/07/26 05:08:05;;;;;;;0.60;0.60;;;;;;;;;;5040303;28;20222;-61
2023/07/26 05:10:34;;;;;;;2.40;0.80;;;;;;;;;;5040369;28;20231;-61
2023/07/26 05:13:02;;;;;;;1.10;1.00;;;;;;;;;;5040024;28;20232;-61
2023/07/26 05:15:29;;;;;;;0.77;0.77;;;;;;;;;;5039897;28;20207;-62
2023/07/26 05:17:57;;;;;;;0.60;0.60;;;;;;;;;;5048251;28;20226;-62
2023/07/26 05:20:25;;;;;;;3.00;0.80;;;;;;;;;;5045896;28;20231;-62
2023/07/26 05:22:53;;;;;;;0.77;0.70;;;;;;;;;;5043403;28;20200;-62
2023/07/26 05:25:22;;;;;;;0.77;0.70;;;;;;;;;;5041224;28;20213;-62
2023/07/26 05:27:50;;;;;;;1.30;0.87;;;;;;;;;;5058173;28;20565;-61
2023/07/26 05:30:18;;;;;;;0.70;0.70;;;;;;;;;;5045094;28;20231;-61
2023/07/26 05:32:46;;;;;;;1.43;1.10;;;;;;;;;;5050673;28;20266;-61
2023/07/26 05:35:14;;;;;;;1.93;0.80;;;;;;;;;;5040246;28;20208;-62
2023/07/26 05:37:41;;;;;;;1.00;1.00;;;;;;;;;;5039949;28;20729;-61
2023/07/26 05:40:09;;;;;;;1.50;1.40;;;;;;;;;;5041930;28;20230;-62
2023/07/26 05:42:38;;;;;;;2.17;0.80;;;;;;;;;;5039880;28;20213;-62
2023/07/26 05:45:07;;;;;;;0.80;0.80;;;;;;;;;;5039908;28;20628;-62
2023/07/26 05:47:38;;;;;;;1.23;1.10;;;;;;;;;;5039545;28;20212;-62
2023/07/26 05:50:06;;;;;;;0.70;0.70;;;;;;;;;;5050248;28;20218;-63
2023/07/26 05:52:34;;;;;;;2.77;0.80;;;;;;;;;;5056391;28;20223;-62
2023/07/26 05:55:02;;;;;;;2.73;1.20;;;;;;;;;;5056415;28;20203;-62
2023/07/26 05:57:30;;;;;;;0.80;0.80;;;;;;;;;;5051502;28;20211;-62
2023/07/26 05:59:59;;;;;;;1.47;0.70;;;;;;;;;;5052427;28;20223;-64
2023/07/26 06:02:27;;;;;;;0.60;0.60;;;;;;;;;;5049486;28;20662;-62
2023/07/26 06:04:55;;;;;;;0.93;0.73;;;;;;;;;;5039406;28;20208;-61
2023/07/26 06:07:23;;;;;;;1.07;1.00;;;;;;;;;;5039345;28;20226;-62
2023/07/26 06:09:51;;;;;;;3.30;1.10;;;;;;;;;;5039568;28;20698;-62
2023/07/26 06:12:18;;;;;;;0.80;0.80;;;;;;;;;;5039269;28;20224;-62
2023/07/26 06:14:46;;;;;;;1.53;1.17;;;;;;;;;;5039188;28;20214;-61
2023/07/26 06:17:15;;;;;;;3.17;1.10;;;;;;;;;;5039438;28;20207;-62
2023/07/26 06:19:43;;;;;;;1.47;0.83;;;;;;;;;;5039030;28;20229;-62
2023/07/26 06:22:12;;;;;;;1.67;1.00;;;;;;;;;;5039262;28;20208;-67
2023/07/26 06:24:40;;;;;;;1.03;1.03;;;;;;;;;;5039031;28;20220;-68
2023/07/26 06:27:07;;;;;;;1.77;1.10;;;;;;;;;;5038793;28;20230;-67
2023/07/26 06:29:37;;;;;;;2.73;1.20;;;;;;;;;;5039084;28;20805;-67
2023/07/26 06:32:05;;;;;;;1.10;1.10;;;;;;;;;;5054089;28;20242;-71
2023/07/26 06:34:34;;;;;;;1.73;1.10;;;;;;;;;;5058687;28;20234;-70
2023/07/26 06:37:02;;;;;;;1.10;1.00;;;;;;;;;;5058678;28;20274;-72
2023/07/26 06:39:30;;;;;;;2.50;1.03;;;;;;;;;;5059061;28;20298;-71
2023/07/26 06:41:57;;;;;;;2.83;1.03;;;;;;;;;;5038767;28;20207;-69
2023/07/26 06:44:25;;;;;;;1.50;0.80;;;;;;;;;;5038941;28;20209;-68
2023/07/26 06:46:53;;;;;;;2.80;1.10;;;;;;;;;;5038825;28;20243;-70
2023/07/26 06:49:21;;;;;;;3.13;1.23;;;;;;;;;;5045809;28;20238;-70
2023/07/26 06:51:52;;;;;;;1.27;1.17;;;;;;;;;;5044220;28;20318;-65
2023/07/26 06:54:19;;;;;;;1.00;1.00;;;;;;;;;;5038772;28;20287;-65
2023/07/26 06:56:48;;;;;;;1.47;1.23;;;;;;;;;;5038648;28;20306;-65
2023/07/26 06:59:16;;;;;;;2.27;1.40;;;;;;;;;;5050383;28;20225;-62
2023/07/26 07:01:44;;;;;;;3.00;1.10;;;;;;;;;;5042221;28;20314;-62
2023/07/26 07:04:12;;;;;;;3.93;1.10;;;;;;;;;;5038398;28;20282;-64
2023/07/26 07:06:42;;;;;;;1.87;1.20;;;;;;;;;;5038352;28;20215;-62
2023/07/26 07:09:11;;;;;;;1.03;0.93;;;;;;;;;;5038361;28;20214;-64
2023/07/26 07:11:38;;;;;;;1.33;0.97;;;;;;;;;;5046908;28;20220;-63
2023/07/26 07:14:06;;;;;;;1.17;1.07;;;;;;;;;;5066096;28;20218;-63
2023/07/26 07:16:37;;;;;;;2.07;1.03;;;;;;;;;;5062533;28;20262;-63
2023/07/26 07:19:05;;;;;;;1.30;1.20;;;;;;;;;;5038323;28;20235;-65
2023/07/26 07:21:33;;;;;;;2.30;1.30;;;;;;;;;;5038053;28;20228;-64
2023/07/26 07:24:02;;;;;;;1.50;0.90;;;;;;;;;;5038233;28;20234;-62
2023/07/26 07:26:31;;;;;;;2.17;1.10;;;;;;;;;;5037092;28;20569;-64
2023/07/26 07:28:59;;;;;;;2.70;1.10;;;;;;;;;;5037571;28;20221;-62
2023/07/26 07:31:26;;;;;;;2.00;1.00;;;;;;;;;;5047877;28;20231;-64
2023/07/26 07:33:54;;;;;;;3.80;1.27;;;;;;;;;;5057689;28;20243;-63
2023/07/26 07:36:22;;;;;;;1.00;1.00;;;;;;;;;;5057815;28;20203;-61
2023/07/26 07:38:50;;;;;;;2.50;0.90;;;;;;;;;;5058125;28;20217;-62
2023/07/26 07:41:17;;;;;;;1.93;1.77;;;;;;;;;;5051233;28;20223;-62
2023/07/26 07:43:46;;;;;;;2.10;1.10;;;;;;;;;;5037615;28;20646;-63
2023/07/26 07:46:14;;;;;;;0.83;0.83;;;;;;;;;;5037551;28;20218;-62
2023/07/26 07:48:42;;;;;;;1.60;1.27;;;;;;;;;;5039622;28;20214;-62
2023/07/26 07:51:10;;;;;;;4.27;1.20;;;;;;;;;;5048624;28;20227;-62
2023/07/26 07:53:38;;;;;;;2.37;2.17;;;;;;;;;;5037734;28;20676;-61
2023/07/26 07:56:05;;;;;;;1.43;1.03;;;;;;;;;;5037588;28;20239;-63
2023/07/26 07:58:33;;;;;;;3.17;0.80;;;;;;;;;;5037566;28;20229;-64
2023/07/26 08:01:02;;;;;;;3.37;0.90;;;;;;;;;;5047345;28;20227;-62
2023/07/26 08:03:30;;;;;;;0.93;0.83;;;;;;;;;;5037762;28;20234;-62
2023/07/26 08:05:58;;;;;;;1.37;1.07;;;;;;;;;;5037603;28;20207;-62
2023/07/26 08:08:25;;;;;;;1.23;1.10;;;;;;;;;;5037697;28;20211;-62
2023/07/26 08:10:53;;;;;;;3.17;1.00;;;;;;;;;;5037983;28;20227;-62
2023/07/26 08:13:21;;;;;;;1.63;1.00;;;;;;;;;;5041152;28;20254;-62
2023/07/26 08:15:49;;;;;;;3.30;1.10;;;;;;;;;;5041766;28;20298;-62
2023/07/26 08:18:18;;;;;;;1.57;1.10;;;;;;;;;;5041506;28;20203;-62
2023/07/26 08:20:46;;;;;;;3.47;1.20;;;;;;;;;;5041652;28;20407;-62
2023/07/26 08:23:14;;;;;;;1.50;1.30;;;;;;;;;;5041458;28;20210;-62
2023/07/26 08:25:42;;;;;;;2.47;1.10;;;;;;;;;;5041635;28;20211;-62
2023/07/26 08:28:10;;;;;;;1.90;1.10;;;;;;;;;;5041255;28;20203;-62
2023/07/26 08:30:38;;;;;;;1.53;1.00;;;;;;;;;;5044293;28;20280;-63
2023/07/26 08:33:05;;;;;;;1.47;0.90;;;;;;;;;;5061137;28;20277;-63
2023/07/26 08:35:35;;;;;;;3.17;1.30;;;;;;;;;;5061113;28;20644;-62
2023/07/26 08:38:03;;;;;;;1.63;1.10;;;;;;;;;;5061177;28;20289;-62
2023/07/26 08:40:34;;;;;;;1.17;1.03;;;;;;;;;;5059570;28;20234;-62
2023/07/26 08:43:03;;;;;;;3.63;1.10;;;;;;;;;;5040968;28;20239;-62
2023/07/26 08:45:33;;;;;;;2.27;1.27;;;;;;;;;;5040947;28;20215;-62
2023/07/26 08:48:01;;;;;;;1.37;1.03;;;;;;;;;;5041266;28;20211;-62
2023/07/26 08:50:29;;;;;;;1.53;1.03;;;;;;;;;;5054232;28;20609;-62
2023/07/26 08:52:59;;;;;;;4.60;1.30;;;;;;;;;;5040935;28;20207;-62
2023/07/26 08:55:26;;;;;;;2.70;1.20;;;;;;;;;;5041089;28;20209;-62
2023/07/26 08:57:54;;;;;;;1.27;1.17;;;;;;;;;;5040794;28;20204;-62
2023/07/26 09:00:22;;;;;;;2.63;1.17;;;;;;;;;;5050826;28;20239;-62
2023/07/26 09:02:50;;;;;;;1.00;1.00;;;;;;;;;;5040692;28;20211;-64
2023/07/26 09:05:18;;;;;;;1.57;1.17;;;;;;;;;;5040835;28;20643;-64
2023/07/26 09:07:46;;;;;;;2.60;1.23;;;;;;;;;;5040470;28;20212;-64
2023/07/26 09:10:15;;;;;;;3.87;2.77;;;;;;;;;;5040364;28;20231;-64
2023/07/26 09:12:43;;;;;;;1.53;1.20;;;;;;;;;;5040142;28;20204;-64
2023/07/26 09:15:11;;;;;;;0.90;0.90;;;;;;;;;;5040650;28;20235;-64
2023/07/26 09:17:39;;;;;;;1.30;1.10;;;;;;;;;;5040412;28;20204;-61
2023/07/26 09:20:19;;;;;;;3.13;1.20;;;;;;;;;;5040140;28;20231;-61
2023/07/26 09:22:46;;;;;;;1.53;0.97;;;;;;;;;;5039478;28;20207;-61
2023/07/26 09:25:30;;;;;;;1.97;1.70;;;;;;;;;;5040387;28;20652;-64
2023/07/26 09:27:58;;;;;;;1.10;1.00;;;;;;;;;;5040052;28;20813;-63
2023/07/26 09:30:26;;;;;;;1.50;1.03;;;;;;;;;;5041739;28;20227;-62
2023/07/26 09:32:54;;;;;;;1.00;1.00;;;;;;;;;;5059908;28;20203;-62
2023/07/26 09:35:22;;;;;;;2.20;1.20;;;;;;;;;;5059980;28;20314;-62
2023/07/26 09:37:50;;;;;;;1.73;1.20;;;;;;;;;;5060024;28;20207;-62
2023/07/26 09:40:32;;;;;;;1.40;1.23;;;;;;;;;;5059686;28;20318;-62
2023/07/26 09:43:05;;;;;;;3.30;1.50;;;;;;;;;;5039652;28;20209;-63
2023/07/26 09:45:33;;;;;;;2.70;1.10;;;;;;;;;;5040055;28;20211;-64
2023/07/26 09:48:05;;;;;;;6.30;1.03;;;;;;;;;;5039795;28;20261;-64
2023/07/26 09:50:35;;;;;;;1.67;1.20;;;;;;;;;;5053155;28;20228;-65
2023/07/26 09:53:08;;;;;;;2.73;1.40;;;;;;;;;;5039920;28;20706;-64
2023/07/26 09:55:37;;;;;;;2.33;1.20;;;;;;;;;;5039805;28;20232;-65
2023/07/26 09:58:05;;;;;;;2.23;1.17;;;;;;;;;;5039694;28;20214;-64
2023/07/26 10:00:33;;;;;;;1.80;1.10;;;;;;;;;;5048423;28;20259;-64
2023/07/26 10:03:03;;;;;;;2.50;2.07;;;;;;;;;;5039730;28;20296;-65
2023/07/26 10:05:35;;;;;;;1.63;1.00;;;;;;;;;;5039691;28;20206;-64
2023/07/26 10:08:03;;;;;;;3.07;1.20;;;;;;;;;;5039663;28;20206;-65
2023/07/26 10:10:31;;;;;;;2.30;1.40;;;;;;;;;;5039373;28;20227;-64
2023/07/26 10:13:01;;;;;;;3.93;1.30;;;;;;;;;;5039082;28;20741;-64
2023/07/26 10:15:30;;;;;;;1.80;1.40;;;;;;;;;;5039503;28;20228;-64
2023/07/26 10:17:58;;;;;;;2.20;1.10;;;;;;;;;;5039210;28;20308;-64
2023/07/26 10:20:26;;;;;;;0.97;0.97;;;;;;;;;;5039388;28;20686;-65
2023/07/26 10:22:55;;;;;;;2.13;1.10;;;;;;;;;;5039122;28;20204;-65
2023/07/26 10:25:23;;;;;;;2.50;1.20;;;;;;;;;;5039269;28;20298;-64
2023/07/26 10:27:52;;;;;;;2.03;1.33;;;;;;;;;;5039007;28;20236;-64
2023/07/26 10:30:21;;;;;;;2.93;1.40;;;;;;;;;;5039898;28;20237;-64
2023/07/26 10:32:49;;;;;;;2.33;1.23;;;;;;;;;;5058982;28;20242;-64
2023/07/26 10:35:25;;;;;;;1.33;1.23;;;;;;;;;;5058120;28;20683;-62
2023/07/26 10:37:56;;;;;;;2.30;1.10;;;;;;;;;;5059007;28;20207;-61
2023/07/26 10:40:31;;;;;;;3.27;1.10;;;;;;;;;;5057742;28;20246;-63
2023/07/26 10:42:59;;;;;;;1.30;1.20;;;;;;;;;;5038828;28;20234;-62
2023/07/26 10:45:43;;;;;;;1.57;1.10;;;;;;;;;;5038916;28;20206;-62
2023/07/26 10:48:16;;;;;;;1.67;1.47;;;;;;;;;;5038740;28;20222;-62
2023/07/26 10:50:43;;;;;;;2.27;1.20;;;;;;;;;;5052024;28;20227;-64
2023/07/26 10:53:30;;;;;;;1.23;1.13;;;;;;;;;;5038492;28;20643;-64
2023/07/26 10:56:09;;;;;;;1.93;1.50;;;;;;;;;;5095438;27;20561;-64
2023/07/26 10:58:37;;;;;;;1.90;1.07;;;;;;;;;;5095550;28;20230;-64
2023/07/26 11:01:04;;;;;;;3.00;1.80;;;;;;;;;;5074884;28;20229;-65
2023/07/26 11:03:32;;;;;;;1.10;1.10;;;;;;;;;;5074970;28;20610;-63
2023/07/26 11:06:00;;;;;;;5.70;1.13;;;;;;;;;;5075038;28;20291;-65
2023/07/26 11:08:44;;;;;;;1.67;1.27;;;;;;;;;;5074827;28;20550;-65
2023/07/26 11:11:17;;;;;;;1.90;1.10;;;;;;;;;;5075058;28;20222;-65
2023/07/26 11:13:45;;;;;;;2.80;1.50;;;;;;;;;;5074858;28;20238;-64
2023/07/26 11:16:13;;;;;;;2.20;1.40;;;;;;;;;;5074920;28;20234;-65
2023/07/26 11:18:44;;;;;;;3.50;1.40;;;;;;;;;;5075384;28;20730;-65
2023/07/26 11:21:16;;;;;;;3.73;1.20;;;;;;;;;;5074679;28;20232;-64
2023/07/26 11:23:45;;;;;;;1.67;1.33;;;;;;;;;;5074606;28;20280;-64
2023/07/26 11:26:14;;;;;;;2.23;1.20;;;;;;;;;;5074616;28;20565;-63
2023/07/26 11:28:41;;;;;;;2.17;1.10;;;;;;;;;;5074493;28;20210;-64
2023/07/26 11:31:18;;;;;;;1.90;1.37;;;;;;;;;;5074468;28;20290;-65
2023/07/26 11:33:47;;;;;;;2.60;1.73;;;;;;;;;;5074666;28;20209;-64
2023/07/26 11:36:19;;;;;;;2.80;1.30;;;;;;;;;;5074048;28;20283;-63
2023/07/26 11:38:48;;;;;;;3.83;1.10;;;;;;;;;;5074203;28;20212;-64
2023/07/26 11:41:19;;;;;;;1.77;1.00;;;;;;;;;;5074301;28;20257;-63
2023/07/26 11:43:47;;;;;;;1.80;1.20;;;;;;;;;;5074106;28;20247;-64
2023/07/26 11:46:15;;;;;;;3.73;2.00;;;;;;;;;;5074096;28;20370;-62
2023/07/26 11:48:44;;;;;;;2.20;1.20;;;;;;;;;;5073950;28;20289;-62
2023/07/26 11:51:12;;;;;;;1.87;1.10;;;;;;;;;;5074034;28;20257;-63
2023/07/26 11:53:41;;;;;;;3.40;1.63;;;;;;;;;;5073655;28;20313;-64
2023/07/26 11:56:14;;;;;;;3.07;1.23;;;;;;;;;;5073820;28;20562;-64
2023/07/26 11:58:44;;;;;;;1.63;1.20;;;;;;;;;;5073687;28;20235;-63
2023/07/26 12:01:14;;;;;;;1.27;1.17;;;;;;;;;;5073846;28;20231;-65
2023/07/26 12:03:42;;;;;;;3.30;1.20;;;;;;;;;;5073687;28;20208;-64
2023/07/26 12:06:10;;;;;;;1.50;1.10;;;;;;;;;;5067354;28;20252;-64
2023/07/26 12:08:38;;;;;;;2.10;1.33;;;;;;;;;;5060630;28;20219;-63
2023/07/26 12:11:06;;;;;;;1.70;1.10;;;;;;;;;;5060628;28;20238;-64
2023/07/26 12:13:36;;;;;;;2.43;1.40;;;;;;;;;;5060126;28;20265;-62
2023/07/26 12:16:05;;;;;;;1.63;1.20;;;;;;;;;;5060494;28;20254;-63
2023/07/26 12:18:33;;;;;;;4.20;1.63;;;;;;;;;;5060528;28;20729;-63
2023/07/26 12:21:02;;;;;;;1.43;1.23;;;;;;;;;;5059962;28;20277;-64
2023/07/26 12:23:51;;;;;;;1.30;1.20;;;;;;;;;;5060157;28;20208;-63
2023/07/26 12:26:20;;;;;;;2.00;1.10;;;;;;;;;;5060119;28;20567;-63
2023/07/26 12:28:47;;;;;;;1.30;1.17;;;;;;;;;;5060118;28;20297;-64
2023/07/26 12:31:21;;;;;;;1.97;1.00;;;;;;;;;;5059866;28;20310;-64
2023/07/26 12:33:55;;;;;;;2.00;1.30;;;;;;;;;;5060253;28;20738;-65
2023/07/26 12:36:23;;;;;;;3.93;1.80;;;;;;;;;;5059717;28;20225;-65
2023/07/26 12:39:08;;;;;;;2.50;1.40;;;;;;;;;;5058647;28;20551;-65
2023/07/26 12:41:36;;;;;;;2.30;1.23;;;;;;;;;;5059623;28;20228;-65
2023/07/26 12:44:08;;;;;;;3.57;1.30;;;;;;;;;;5059803;28;20210;-65
2023/07/26 12:46:38;;;;;;;2.73;2.27;;;;;;;;;;5059996;28;20293;-63
2023/07/26 12:49:10;;;;;;;2.00;1.20;;;;;;;;;;5059622;28;20658;-63
2023/07/26 12:51:39;;;;;;;2.73;1.60;;;;;;;;;;5059617;28;20230;-64
2023/07/26 12:54:08;;;;;;;1.77;1.27;;;;;;;;;;5059667;28;20265;-64
2023/07/26 12:56:35;;;;;;;3.67;1.30;;;;;;;;;;5059243;28;20593;-64
2023/07/26 12:59:03;;;;;;;2.63;1.37;;;;;;;;;;5059683;28;20202;-64
2023/07/26 13:01:36;;;;;;;2.40;1.00;;;;;;;;;;5059620;28;20236;-64
2023/07/26 13:04:06;;;;;;;1.10;1.07;;;;;;;;;;5059688;28;20210;-64
2023/07/26 13:06:35;;;;;;;2.87;1.40;;;;;;;;;;5059496;28;20211;-64
2023/07/26 13:09:05;;;;;;;3.17;1.33;;;;;;;;;;5059544;28;20216;-64
2023/07/26 13:11:33;;;;;;;1.90;1.47;;;;;;;;;;5059390;28;20228;-65
2023/07/26 13:14:01;;;;;;;2.10;1.20;;;;;;;;;;5059358;28;20209;-64
2023/07/26 13:16:29;;;;;;;2.40;1.23;;;;;;;;;;5059299;28;20227;-64
2023/07/26 13:19:00;;;;;;;2.13;1.20;;;;;;;;;;5058415;28;20210;-64
2023/07/26 13:21:29;;;;;;;2.60;1.30;;;;;;;;;;5058822;28;20228;-65
2023/07/26 13:23:57;;;;;;;2.30;1.30;;;;;;;;;;5059077;28;20559;-64
2023/07/26 13:26:25;;;;;;;2.83;1.53;;;;;;;;;;5058855;28;20246;-64
2023/07/26 13:28:53;;;;;;;3.87;1.30;;;;;;;;;;5058946;28;20222;-65
2023/07/26 13:31:21;;;;;;;3.03;1.20;;;;;;;;;;5058605;28;20231;-64
2023/07/26 13:33:49;;;;;;;2.77;1.27;;;;;;;;;;5058974;28;20217;-64
2023/07/26 13:36:19;;;;;;;2.63;1.33;;;;;;;;;;5058768;28;20680;-64
2023/07/26 13:38:48;;;;;;;2.53;1.30;;;;;;;;;;5058758;28;20247;-65
2023/07/26 13:41:16;;;;;;;2.80;1.20;;;;;;;;;;5058790;28;20225;-64
2023/07/26 13:43:43;;;;;;;2.00;1.10;;;;;;;;;;5058540;28;20220;-64
2023/07/26 13:46:11;;;;;;;1.50;1.37;;;;;;;;;;5058831;28;20212;-64
2023/07/26 13:48:59;;;;;;;2.30;1.10;;;;;;;;;;5058995;28;20204;-64
2023/07/26 13:51:27;;;;;;;4.20;3.37;;;;;;;;;;5058495;28;20238;-65
2023/07/26 13:53:56;;;;;;;4.83;1.50;;;;;;;;;;5058480;28;20220;-64
2023/07/26 13:56:24;;;;;;;1.27;1.20;;;;;;;;;;5058517;28;20355;-65
2023/07/26 13:58:52;;;;;;;3.23;1.40;;;;;;;;;;5057962;28;20213;-64
2023/07/26 14:01:19;;;;;;;3.70;1.23;;;;;;;;;;5058155;28;20234;-64
2023/07/26 14:03:48;;;;;;;1.53;1.27;;;;;;;;;;5058412;28;20216;-64
2023/07/26 14:06:15;;;;;;;8.30;1.90;;;;;;;;;;5058031;28;20212;-64
2023/07/26 14:08:43;;;;;;;1.63;1.30;;;;;;;;;;5058399;28;20294;-64
2023/07/26 14:11:12;;;;;;;1.10;1.00;;;;;;;;;;5058236;28;20227;-64
2023/07/26 14:13:40;;;;;;;3.03;1.40;;;;;;;;;;5058018;28;20219;-64
2023/07/26 14:16:08;;;;;;;1.60;1.27;;;;;;;;;;5057929;28;20222;-64
2023/07/26 14:18:49;;;;;;;3.43;1.20;;;;;;;;;;5058240;28;20646;-65
2023/07/26 14:21:17;;;;;;;2.57;2.10;;;;;;;;;;5057746;28;20227;-65
2023/07/26 14:23:45;;;;;;;1.73;1.23;;;;;;;;;;5057587;28;20211;-65
2023/07/26 14:26:14;;;;;;;7.33;1.40;;;;;;;;;;5057702;28;20574;-64
2023/07/26 14:28:42;;;;;;;1.53;1.37;;;;;;;;;;5057508;28;20221;-65
2023/07/26 14:31:09;;;;;;;2.03;1.10;;;;;;;;;;5057908;28;20330;-63
2023/07/26 14:33:37;;;;;;;2.00;1.30;;;;;;;;;;5057764;28;20206;-63
2023/07/26 14:36:05;;;;;;;1.23;1.03;;;;;;;;;;5057363;28;20226;-65
2023/07/26 14:38:33;;;;;;;2.20;1.30;;;;;;;;;;5058132;28;20207;-64
2023/07/26 14:41:01;;;;;;;1.60;1.23;;;;;;;;;;5057841;28;20218;-64
2023/07/26 14:43:31;;;;;;;4.10;1.33;;;;;;;;;;5057717;28;20213;-64
2023/07/26 14:45:59;;;;;;;1.53;1.13;;;;;;;;;;5057656;28;20249;-64
2023/07/26 14:48:26;;;;;;;1.60;1.17;;;;;;;;;;5057523;28;20526;-64
2023/07/26 14:50:55;;;;;;;2.70;1.23;;;;;;;;;;5044061;28;20242;-64
2023/07/26 14:53:24;;;;;;;1.47;1.20;;;;;;;;;;5057705;28;20298;-65